x

Buoy F01 - West Penobscot Bay (44033) Wave Buoy

9:04am - Sat 23rd Sep 2017 All times are EDT. -4 hours from GMT.

  • Sig Wave height 2.6ft
  • Peak Period 8s
  • Wind
    7mph, 7mph gusts
  • Sea Temp 57°f
  • 空気 Temp 58°f
  • Sea Pressure 1016.5mb
  • Buoy F01 - West Penobscot Bay
  • Buoy F01 - West Penobscot Bay

More Historic Weather Station data

Upgrade to MSW Pro to gain access to the past 30 days of data for over 8000 Wavebouys and Weather Stations around the globe.

Join

Comparision Forecast

View Surf forecast
   
Sat 09/23 9:04am 2.5ft 8s 7 7 mph 1016.5mb 57f 58f
8:04am 3ft 8s 7 9 mph 1016.5mb 57f 58f
7:04am 3.5ft 8s 7 7 mph 1016.5mb 57f 58f
6:04am 2.5ft 11s 9 9 mph 1016.3mb 58f 59f
5:04am 2.5ft 8s 4 4 mph 1016mb 58f 59f
4:04am 3ft 8s 7 7 mph 1016.1mb 58f 61f
3:04am 2.5ft 8s 7 9 mph 1016.4mb 59f 61f
2:04am 3.5ft 11s 9 9 mph 1016.5mb 59f 61f
1:04am 3ft 8s 9 9 mph 1016.8mb 59f 61f
12:04am 3ft 8s 4 4 mph 1016.5mb 59f 61f
Fri 09/22 11:04pm 3.5ft 11s 4 7 mph 1017.2mb 59f 62f
10:04pm 3.5ft 11s 7 9 mph 1017.5mb 60f 64f
9:04pm 4.5ft 11s 4 4 mph 1017.5mb 60f 61f
8:04pm 3.5ft 11s 4 7 mph 1017.4mb 60f 62f
7:04pm 3.5ft 11s 2 4 mph 1017.3mb 60f 62f
6:04pm 4ft 11s 4 7 mph 1017.3mb 60f 62f
5:04pm 4ft 8s 7 7 mph 1017.1mb 58f 62f
4:04pm 3.5ft 8s 9 11 mph 1017.3mb 58f 62f
3:04pm 3.5ft 8s 11 13 mph 1017.6mb 58f 62f
2:04pm 4ft 11s 11 13 mph 1017.8mb 58f 61f
1:04pm 3.5ft 11s 11 11 mph 1018.1mb 59f 59f
12:04pm 4.5ft 11s 11 13 mph 1018.8mb 57f 59f
11:04am  -   -  13 16 mph 1019mb 56f 58f
10:04am 2.5ft 4s 18 20 mph 1019mb 57f 57f
9:04am 2.5ft 4s 20 25 mph 1019.2mb 57f 56f
8:04am  -   -  20 25 mph 1019mb 58f 56f
7:04am  -   -  20 25 mph 1019mb 59f 56f
6:04am 5ft 11s 18 22 mph 1018.7mb 59f 57f
5:04am 4.5ft 8s 18 22 mph 1018.6mb 58f 57f
4:04am 4.5ft 11s 18 20 mph 1018.7mb 58f 58f
3:04am 4ft 8s 16 20 mph 1018.7mb 58f 58f
2:04am 1.6ft 5s 18 20 mph 1018.9mb 59f 59f
1:04am 4.5ft 11s 18 20 mph 1019mb 58f 60f
12:04am 3.5ft 8s 16 18 mph 1018.9mb 58f 61f
Thu 09/21 11:04pm 1.3ft 3s 13 16 mph 1019.1mb 59f 61f
10:04pm  -   -  16 18 mph 1018.8mb 59f 62f
9:04pm 3ft 8s 13 13 mph 1018.7mb 59f 63f
8:04pm 3ft 8s 7 7 mph 1018.4mb 60f 60f
7:04pm 3.5ft 8s 7 9 mph 1017.9mb 60f 61f
6:04pm 3.5ft 11s 9 11 mph 1017.3mb 60f 64f
5:04pm 3.5ft 8s 13 16 mph 1017.1mb 59f 66f
4:04pm 3.5ft 11s 11 13 mph 1017.2mb 58f 65f
3:04pm 1.3ft 3s 11 16 mph 1017.2mb 58f 63f
2:04pm 4ft 8s 16 18 mph 1017mb 58f 64f
1:04pm 1.3ft 3s 13 16 mph 1017mb 58f 63f
12:04pm 1.3ft 3s 11 13 mph 1017.5mb 57f 62f
11:04am 3.5ft 8s 13 16 mph 1017.8mb 57f 61f
10:04am 1.6ft 4s 16 18 mph 1017.6mb 56f 60f
9:04am 4ft 8s 13 18 mph 1017.3mb 57f 60f
8:04am 3.5ft 8s 16 20 mph 1016.5mb 57f 60f
7:04am 2.5ft 4s 13 16 mph 1016.2mb 57f 60f
6:04am  -   -  16 18 mph 1015.4mb 58f 60f
5:04am  -   -  13 16 mph 1014.7mb 58f 61f
4:04am 3.5ft 11s 16 18 mph 1014.1mb 57f 61f
3:04am 1.6ft 3s 16 16 mph 1013.7mb 58f 62f
2:04am 2ft 5s 16 16 mph 1013.6mb 58f 62f
1:04am 4.5ft 11s 16 20 mph 1013.5mb 57f 63f
12:04am  -   -  11 13 mph 1013.5mb 57f 61f
Wed 09/20 11:04pm 3.5ft 8s 11 13 mph 1013.5mb 56f 62f
10:04pm 1.3ft 4s 11 13 mph 1013.3mb 56f 62f
9:04pm 3.5ft 11s 11 11 mph 1012.8mb 57f 62f
8:04pm 3.5ft 11s 11 11 mph 1012.9mb 58f 63f
7:04pm 4ft 8s 7 9 mph 1012.9mb 58f 62f
6:04pm 2ft 5s 11 11 mph 1012.8mb 58f 64f
5:04pm 3ft 11s 13 13 mph 1012.4mb 58f 64f
4:04pm 3.5ft 11s 11 11 mph 1012.4mb 58f 64f
3:04pm 3ft 11s 9 11 mph 1012.7mb 59f 62f
2:04pm 3.5ft 11s 11 11 mph 1013.2mb 58f 62f
1:04pm 2.5ft 8s 9 11 mph 1013.3mb 58f 60f
12:04pm 3.5ft 11s 11 13 mph 1014.1mb 57f 60f
11:04am 1ft 2s 11 13 mph 1014.3mb 56f 61f
10:04am 1ft 3s  -  mph - 56f -
9:04am 1.6ft 5s  -  mph - 56f -
8:04am 3.5ft 8s  -  mph - 58f -
6:04am 3ft 11s 11 13 mph 1015.4mb 58f 61f
5:04am 3.5ft 11s 9 11 mph 1015.2mb 58f 60f
4:04am 2.5ft 11s 11 13 mph 1015.4mb 58f 60f
3:04am 2.5ft 6s 7 13 mph 1015.7mb 58f 60f
2:04am 2.5ft 6s 2 7 mph 1016.1mb 57f 61f
1:04am 3ft 11s 11 13 mph 1016.5mb 56f 61f
12:04am 2.5ft 8s 9 9 mph 1016.9mb 56f 60f
Tue 09/19 11:04pm 3.5ft 11s 9 11 mph 1017.5mb 56f 61f
10:04pm  -   -   -  mph - 56f -
9:04pm 2.5ft 11s 9 13 mph 1017.9mb 56f 59f
8:04pm 0.7ft  -   -  mph - 57f -
6:04pm 1.3ft 4s 9 11 mph 1018.7mb 58f 61f
5:04pm  -   -  4 4 mph 1018.9mb - 60f
4:04pm 2.5ft 11s 9 11 mph 1018.7mb 58f 61f
3:04pm 2.5ft 11s 11 13 mph 1019.4mb 58f 60f